Time,TemperatureF,DewpointF,PressureIn,WindDirection,WindDirectionDegrees,WindSpeedMPH,WindSpeedGustMPH,Humidity,HourlyPrecipIn,Conditions,Clouds,dailyrainin,SoftwareType,DateUTC
2013-01-09 00:14:00,31.6,27.0,30.15,South,171,6.0,7.0,84,0.00,,,0.00,weatherlink.com 1.10,2013-01-09 05:14:00,
2013-01-09 00:29:00,31.8,28.0,30.14,SSE,161,6.0,8.0,85,0.00,,,0.00,weatherlink.com 1.10,2013-01-09 05:29:00,
2013-01-09 00:44:00,32.2,28.0,30.14,South,174,2.0,7.0,84,0.00,,,0.00,weatherlink.com 1.10,2013-01-09 05:44:00,
2013-01-09 00:59:00,32.0,27.0,30.14,SSE,159,3.0,5.0,83,0.00,,,0.00,weatherlink.com 1.10,2013-01-09 05:59:00,
2013-01-09 01:14:00,32.3,28.0,30.14,SSE,155,2.0,6.0,84,0.00,,,0.00,weatherlink.com 1.10,2013-01-09 06:14:00,
2013-01-09 01:34:00,32.8,29.0,30.13,South,172,5.0,5.0,84,0.00,,,0.00,weatherlink.com 1.10,2013-01-09 06:34:00,
2013-01-09 01:49:00,33.3,29.0,30.13,South,180,2.0,4.0,83,0.00,,,0.00,weatherlink.com 1.10,2013-01-09 06:49:00,
2013-01-09 01:59:00,33.3,29.0,30.13,SSE,163,3.0,4.0,84,0.00,,,0.00,weatherlink.com 1.10,2013-01-09 06:59:00,
2013-01-09 02:14:00,34.4,30.0,30.13,SSW,192,3.0,7.0,84,0.00,,,0.00,weatherlink.com 1.10,2013-01-09 07:14:00,
2013-01-09 02:29:00,36.6,32.0,30.13,SSE,159,5.0,8.0,82,0.00,,,0.00,weatherlink.com 1.10,2013-01-09 07:29:00,
2013-01-09 02:44:00,37.4,32.0,30.12,SSW,194,5.0,12.0,81,0.00,,,0.00,weatherlink.com 1.10,2013-01-09 07:44:00,
2013-01-09 02:59:00,37.4,32.0,30.12,SSW,198,7.0,11.0,82,0.00,,,0.00,weatherlink.com 1.10,2013-01-09 07:59:00,
2013-01-09 03:14:00,38.1,33.0,30.12,South,186,3.0,10.0,82,0.00,,,0.00,weatherlink.com 1.10,2013-01-09 08:14:00,
2013-01-09 03:29:00,39.2,34.0,30.11,South,175,3.0,10.0,81,0.00,,,0.00,weatherlink.com 1.10,2013-01-09 08:29:00,
2013-01-09 03:44:00,40.5,34.0,30.12,SSW,193,5.0,11.0,78,0.00,,,0.00,weatherlink.com 1.10,2013-01-09 08:44:00,
2013-01-09 03:59:00,40.8,34.0,30.13,SSE,148,7.0,17.0,78,0.00,,,0.00,weatherlink.com 1.10,2013-01-09 08:59:00,
2013-01-09 04:14:00,40.9,35.0,30.12,South,177,4.0,15.0,78,0.00,,,0.00,weatherlink.com 1.10,2013-01-09 09:14:00,
2013-01-09 04:33:00,40.9,35.0,30.12,WSW,240,3.0,11.0,78,0.00,,,0.00,weatherlink.com 1.10,2013-01-09 09:33:00,
2013-01-09 04:45:00,40.8,34.0,30.12,SW,223,3.0,17.0,78,0.00,,,0.00,weatherlink.com 1.10,2013-01-09 09:45:00,
2013-01-09 05:00:00,40.7,35.0,30.12,SSW,211,2.0,7.0,79,0.00,,,0.00,weatherlink.com 1.10,2013-01-09 10:00:00,
2013-01-09 05:15:00,40.8,35.0,30.12,West,261,1.0,7.0,79,0.00,,,0.00,weatherlink.com 1.10,2013-01-09 10:15:00,
2013-01-09 05:30:00,41.0,35.0,30.12,SW,218,1.0,9.0,79,0.00,,,0.00,weatherlink.com 1.10,2013-01-09 10:30:00,
2013-01-09 05:45:00,41.3,35.0,30.11,SSW,211,7.0,9.0,79,0.00,,,0.00,weatherlink.com 1.10,2013-01-09 10:45:00,
2013-01-09 06:00:00,41.6,35.0,30.13,SW,235,11.0,11.0,78,0.00,,,0.00,weatherlink.com 1.10,2013-01-09 11:00:00,
2013-01-09 06:15:00,41.5,35.0,30.12,SW,234,1.0,10.0,79,0.00,,,0.00,weatherlink.com 1.10,2013-01-09 11:15:00,
2013-01-09 06:30:00,41.6,36.0,30.13,SW,236,1.0,16.0,79,0.00,,,0.00,weatherlink.com 1.10,2013-01-09 11:30:00,
2013-01-09 06:45:00,41.6,36.0,30.13,WNW,302,1.0,13.0,79,0.00,,,0.00,weatherlink.com 1.10,2013-01-09 11:45:00,
2013-01-09 07:00:00,41.4,36.0,30.13,SW,225,7.0,13.0,80,0.00,,,0.00,weatherlink.com 1.10,2013-01-09 12:00:00,
2013-01-09 07:15:00,41.2,36.0,30.14,South,173,5.0,12.0,80,0.00,,,0.00,weatherlink.com 1.10,2013-01-09 12:15:00,
2013-01-09 07:30:00,40.9,36.0,30.15,South,187,3.0,14.0,81,0.00,,,0.00,weatherlink.com 1.10,2013-01-09 12:30:00,
2013-01-09 07:45:00,40.8,35.0,30.16,SSW,213,5.0,15.0,81,0.00,,,0.00,weatherlink.com 1.10,2013-01-09 12:45:00,
2013-01-09 08:00:00,40.7,35.0,30.16,SSW,212,2.0,13.0,81,0.00,,,0.00,weatherlink.com 1.10,2013-01-09 13:00:00,
2013-01-09 08:15:00,40.2,35.0,30.18,WSW,240,1.0,10.0,81,0.00,,,0.00,weatherlink.com 1.10,2013-01-09 13:15:00,
2013-01-09 08:30:00,39.8,35.0,30.19,WNW,294,5.0,16.0,82,0.00,,,0.00,weatherlink.com 1.10,2013-01-09 13:30:00,
2013-01-09 08:45:00,39.7,35.0,30.19,SSW,213,2.0,16.0,82,0.00,,,0.00,weatherlink.com 1.10,2013-01-09 13:45:00,
2013-01-09 09:00:00,39.8,35.0,30.20,West,260,5.0,11.0,82,0.00,,,0.00,weatherlink.com 1.10,2013-01-09 14:00:00,
2013-01-09 09:15:00,39.9,35.0,30.22,South,191,0.0,11.0,82,0.00,,,0.00,weatherlink.com 1.10,2013-01-09 14:15:00,
2013-01-09 09:30:00,40.0,35.0,30.23,SW,232,6.0,10.0,81,0.00,,,0.00,weatherlink.com 1.10,2013-01-09 14:30:00,
2013-01-09 09:45:00,40.2,35.0,30.23,West,280,4.0,16.0,80,0.00,,,0.00,weatherlink.com 1.10,2013-01-09 14:45:00,
2013-01-09 10:00:00,40.4,34.0,30.24,WNW,296,10.0,13.0,79,0.00,,,0.00,weatherlink.com 1.10,2013-01-09 15:00:00,
2013-01-09 10:15:00,40.6,35.0,30.24,WNW,288,4.0,13.0,79,0.00,,,0.00,weatherlink.com 1.10,2013-01-09 15:15:00,
2013-01-09 10:30:00,40.8,34.0,30.25,WSW,245,2.0,9.0,78,0.00,,,0.00,weatherlink.com 1.10,2013-01-09 15:30:00,
2013-01-09 10:45:00,41.0,34.0,30.25,WSW,251,5.0,10.0,77,0.00,,,0.00,weatherlink.com 1.10,2013-01-09 15:45:00,
2013-01-09 11:15:00,41.6,34.0,30.26,WSW,246,0.0,10.0,75,0.00,,,0.00,weatherlink.com 1.10,2013-01-09 16:15:00,
2013-01-09 11:30:00,41.9,34.0,30.26,WSW,250,2.0,8.0,74,0.00,,,0.00,weatherlink.com 1.10,2013-01-09 16:30:00,
2013-01-09 11:45:00,42.4,34.0,30.26,WNW,297,2.0,9.0,73,0.00,,,0.00,weatherlink.com 1.10,2013-01-09 16:45:00,
2013-01-09 12:00:00,42.6,35.0,30.26,ESE,113,3.0,7.0,74,0.00,,,0.00,weatherlink.com 1.10,2013-01-09 17:00:00,
2013-01-09 12:15:00,42.8,35.0,30.25,WSW,245,8.0,10.0,73,0.00,,,0.00,weatherlink.com 1.10,2013-01-09 17:15:00,
2013-01-09 12:30:00,42.8,35.0,30.25,West,263,1.0,8.0,73,0.00,,,0.00,weatherlink.com 1.10,2013-01-09 17:30:00,
2013-01-09 12:45:00,43.2,35.0,30.25,WSW,252,7.0,9.0,72,0.00,,,0.00,weatherlink.com 1.10,2013-01-09 17:45:00,
2013-01-09 13:00:00,43.6,35.0,30.24,WSW,253,5.0,8.0,72,0.00,,,0.00,weatherlink.com 1.10,2013-01-09 18:00:00,
2013-01-09 13:15:00,43.7,35.0,30.25,NW,313,2.0,9.0,71,0.00,,,0.00,weatherlink.com 1.10,2013-01-09 18:15:00,
2013-01-09 13:30:00,43.8,35.0,30.25,WNW,301,1.0,13.0,71,0.00,,,0.00,weatherlink.com 1.10,2013-01-09 18:30:00,
2013-01-09 13:45:00,44.1,35.0,30.26,WNW,294,4.0,10.0,71,0.00,,,0.00,weatherlink.com 1.10,2013-01-09 18:45:00,
2013-01-09 14:00:00,44.1,35.0,30.26,WNW,291,1.0,13.0,70,0.00,,,0.00,weatherlink.com 1.10,2013-01-09 19:00:00,
2013-01-09 14:15:00,44.3,35.0,30.27,SSW,194,3.0,12.0,70,0.00,,,0.00,weatherlink.com 1.10,2013-01-09 19:15:00,
2013-01-09 14:30:00,44.2,35.0,30.28,SW,215,7.0,11.0,71,0.00,,,0.00,weatherlink.com 1.10,2013-01-09 19:30:00,
2013-01-09 14:45:00,44.9,35.0,30.29,WNW,282,0.0,11.0,69,0.00,,,0.00,weatherlink.com 1.10,2013-01-09 19:45:00,
2013-01-09 15:00:00,45.0,35.0,30.29,WNW,298,2.0,8.0,68,0.00,,,0.00,weatherlink.com 1.10,2013-01-09 20:00:00,
2013-01-09 15:15:00,44.8,35.0,30.30,West,263,1.0,7.0,69,0.00,,,0.00,weatherlink.com 1.10,2013-01-09 20:15:00,
2013-01-09 15:30:00,44.9,35.0,30.30,NNW,333,3.0,10.0,69,0.00,,,0.00,weatherlink.com 1.10,2013-01-09 20:30:00,
2013-01-09 15:46:00,44.8,35.0,30.32,West,273,3.0,9.0,68,0.00,,,0.00,weatherlink.com 1.10,2013-01-09 20:46:00,
2013-01-09 16:03:00,44.5,35.0,30.32,WSW,238,3.0,11.0,69,0.00,,,0.00,weatherlink.com 1.10,2013-01-09 21:03:00,
2013-01-09 16:16:00,44.3,35.0,30.32,NW,319,1.0,10.0,69,0.00,,,0.00,weatherlink.com 1.10,2013-01-09 21:16:00,
2013-01-09 16:31:00,43.6,34.0,30.33,NW,306,8.0,9.0,69,0.00,,,0.00,weatherlink.com 1.10,2013-01-09 21:31:00,
2013-01-09 16:46:00,42.9,34.0,30.33,WNW,302,1.0,8.0,70,0.00,,,0.00,weatherlink.com 1.10,2013-01-09 21:46:00,
2013-01-09 17:16:00,42.2,33.0,30.34,West,259,4.0,9.0,71,0.00,,,0.00,weatherlink.com 1.10,2013-01-09 22:16:00,
2013-01-09 17:31:00,41.4,33.0,30.35,West,266,0.0,5.0,72,0.00,,,0.00,weatherlink.com 1.10,2013-01-09 22:31:00,
2013-01-09 17:46:00,40.5,33.0,30.36,WSW,252,0.0,6.0,74,0.00,,,0.00,weatherlink.com 1.10,2013-01-09 22:46:00,
2013-01-09 18:01:00,39.6,32.0,30.36,WSW,258,0.0,3.0,75,0.00,,,0.00,weatherlink.com 1.10,2013-01-09 23:01:00,
2013-01-09 18:16:00,38.5,32.0,30.36,WSW,258,0.0,1.0,77,0.00,,,0.00,weatherlink.com 1.10,2013-01-09 23:16:00,
2013-01-09 18:31:00,38.7,32.0,30.37,WSW,252,0.0,3.0,76,0.00,,,0.00,weatherlink.com 1.10,2013-01-09 23:31:00,
2013-01-09 18:46:00,38.1,31.0,30.38,WNW,297,0.0,3.0,76,0.00,,,0.00,weatherlink.com 1.10,2013-01-09 23:46:00,
2013-01-09 19:16:00,37.7,29.0,30.39,NW,309,0.0,1.0,71,0.00,,,0.00,weatherlink.com 1.10,2013-01-10 00:16:00,
2013-01-09 19:31:00,37.4,28.0,30.40,NW,311,0.0,3.0,68,0.00,,,0.00,weatherlink.com 1.10,2013-01-10 00:31:00,
2013-01-09 19:46:00,38.0,27.0,30.40,WSW,245,0.0,4.0,65,0.00,,,0.00,weatherlink.com 1.10,2013-01-10 00:46:00,
2013-01-09 20:01:00,37.3,26.0,30.40,WNW,302,0.0,3.0,65,0.00,,,0.00,weatherlink.com 1.10,2013-01-10 01:01:00,
2013-01-09 20:16:00,35.7,26.0,30.40,WNW,302,0.0,3.0,68,0.00,,,0.00,weatherlink.com 1.10,2013-01-10 01:16:00,
2013-01-09 20:46:00,35.1,26.0,30.41,WNW,287,3.0,5.0,69,0.00,,,0.00,weatherlink.com 1.10,2013-01-10 01:46:00,
2013-01-09 21:01:00,36.0,26.0,30.41,WNW,296,2.0,6.0,66,0.00,,,0.00,weatherlink.com 1.10,2013-01-10 02:01:00,
2013-01-09 21:16:00,35.3,25.0,30.42,WNW,296,0.0,1.0,66,0.00,,,0.00,weatherlink.com 1.10,2013-01-10 02:16:00,
2013-01-09 21:31:00,34.4,24.0,30.43,WNW,296,0.0,1.0,67,0.00,,,0.00,weatherlink.com 1.10,2013-01-10 02:31:00,
2013-01-09 21:46:00,35.3,25.0,30.44,SW,225,0.0,3.0,65,0.00,,,0.00,weatherlink.com 1.10,2013-01-10 02:46:00,
2013-01-09 22:16:00,32.4,24.0,30.44,SW,225,0.0,0.0,71,0.00,,,0.00,weatherlink.com 1.10,2013-01-10 03:16:00,
2013-01-09 22:31:00,31.9,25.0,30.44,SW,225,0.0,0.0,74,0.00,,,0.00,weatherlink.com 1.10,2013-01-10 03:31:00,
2013-01-09 22:46:00,30.7,23.0,30.45,SW,225,0.0,0.0,74,0.00,,,0.00,weatherlink.com 1.10,2013-01-10 03:46:00,
2013-01-09 23:01:00,29.8,23.0,30.45,SW,225,0.0,0.0,77,0.00,,,0.00,weatherlink.com 1.10,2013-01-10 04:01:00,
2013-01-09 23:17:00,30.1,24.0,30.47,SW,225,0.0,0.0,78,0.00,,,0.00,weatherlink.com 1.10,2013-01-10 04:17:00,
2013-01-09 23:47:00,30.9,25.0,30.49,SW,225,0.0,1.0,77,0.00,,,0.00,weatherlink.com 1.10,2013-01-10 04:47:00,